Time;durP1;ratioP1;P1;durP2;ratioP2;P2;SDS_P1;SDS_P2;PMS_P1;PMS_P2;Temp;Humidity;BMP_temperature;BMP_pressure;BME280_temperature;BME280_humidity;BME280_pressure;Samples;Min_cycle;Max_cycle;Signal;HPM_P1;HPM_P2
2022/11/22 00:01:04;;;;;;;19.30;17.95;;;;;;;9.92;61.73;98984.28;4973559;28;20046;-76
2022/11/22 00:03:32;;;;;;;18.38;17.17;;;;;;;9.92;61.90;98992.38;4989760;28;20027;-75
2022/11/22 00:05:58;;;;;;;19.10;17.70;;;;;;;9.93;61.83;98988.63;4990361;28;20359;-76
2022/11/22 00:08:23;;;;;;;18.60;17.50;;;;;;;9.92;62.02;98978.88;4974777;28;20446;-76
2022/11/22 00:10:48;;;;;;;19.90;18.70;;;;;;;9.93;61.86;98979.72;4990414;28;20027;-75
2022/11/22 00:13:18;;;;;;;20.80;19.50;;;;;;;9.92;61.90;98978.88;4974675;28;20031;-75
2022/11/22 00:15:44;;;;;;;17.85;16.85;;;;;;;9.92;62.06;98965.41;4973809;28;20510;-75
2022/11/22 00:18:09;;;;;;;19.42;17.92;;;;;;;9.93;61.76;98968.94;4974124;28;20035;-75
2022/11/22 00:20:35;;;;;;;17.48;16.52;;;;;;;9.93;62.00;98977.03;4974419;28;20391;-75
2022/11/22 00:23:00;;;;;;;18.67;17.58;;;;;;;9.94;61.94;98975.94;4974579;28;20062;-75
2022/11/22 00:25:26;;;;;;;18.73;17.70;;;;;;;9.93;62.09;98983.22;4973900;28;20035;-76
2022/11/22 00:27:52;;;;;;;17.92;16.73;;;;;;;9.93;61.96;98980.53;4974650;28;20022;-75
2022/11/22 00:30:17;;;;;;;19.73;18.45;;;;;;;9.93;61.86;98975.13;4974537;28;20475;-76
2022/11/22 00:32:43;;;;;;;18.02;16.98;;;;;;;9.94;61.97;98979.41;4975134;28;20352;-76
2022/11/22 00:35:09;;;;;;;20.05;18.95;;;;;;;9.93;61.76;98983.22;4989148;28;20042;-77
2022/11/22 00:37:35;;;;;;;19.00;17.80;;;;;;;9.93;61.99;98983.22;4989444;28;20082;-76
2022/11/22 00:40:01;;;;;;;20.38;19.20;;;;;;;9.95;61.76;98982.91;4974460;28;20039;-76
2022/11/22 00:42:26;;;;;;;19.17;17.75;;;;;;;9.95;62.03;98988.31;4973805;28;20026;-76
2022/11/22 00:44:51;;;;;;;17.73;16.73;;;;;;;9.95;61.72;98988.31;4989370;28;20035;-76
2022/11/22 00:47:17;;;;;;;20.73;19.42;;;;;;;9.94;62.16;98987.50;4973207;28;20383;-76
2022/11/22 00:49:42;;;;;;;18.17;17.15;;;;;;;9.94;61.78;98987.50;4989929;28;20058;-76
2022/11/22 00:52:07;;;;;;;18.52;17.42;;;;;;;9.95;61.85;98985.63;4973226;28;20498;-78
2022/11/22 00:54:33;;;;;;;17.25;16.25;;;;;;;9.94;61.72;98984.00;4974105;28;20109;-76
2022/11/22 00:56:58;;;;;;;18.58;17.50;;;;;;;9.94;61.85;98986.72;4991449;28;20058;-75
2022/11/22 00:59:23;;;;;;;19.25;18.05;;;;;;;9.95;61.70;98988.31;4976879;28;20030;-76
2022/11/22 01:01:49;;;;;;;18.23;16.77;;;;;;;9.95;61.78;98982.91;4993312;28;20034;-76
2022/11/22 01:04:14;;;;;;;18.92;17.80;;;;;;;9.94;61.81;98992.91;4977818;28;20483;-75
2022/11/22 01:06:40;;;;;;;17.63;16.65;;;;;;;9.94;62.05;98975.94;4976764;28;20034;-75
2022/11/22 01:09:05;;;;;;;18.40;17.25;;;;;;;9.94;61.78;98975.94;4976453;28;20042;-76
2022/11/22 01:11:30;;;;;;;17.20;16.20;;;;;;;9.93;61.69;98977.81;4978036;28;20034;-76
2022/11/22 01:13:56;;;;;;;18.40;17.30;;;;;;;9.93;61.82;98982.41;4978317;28;20069;-76
2022/11/22 01:16:21;;;;;;;20.02;18.40;;;;;;;9.94;61.86;98992.09;4976388;28;20030;-76
2022/11/22 01:18:46;;;;;;;19.73;18.33;;;;;;;9.93;62.23;98990.50;4977766;28;20035;-76
2022/11/22 01:21:12;;;;;;;17.90;16.75;;;;;;;9.92;61.86;99003.16;4992599;28;20094;-79
2022/11/22 01:23:37;;;;;;;19.10;18.10;;;;;;;9.93;61.70;98995.91;4976324;28;20410;-77
2022/11/22 01:26:06;;;;;;;17.63;16.52;;;;;;;9.93;61.97;98996.69;4976688;28;20038;-77
2022/11/22 01:28:32;;;;;;;18.55;16.98;;;;;;;9.93;61.94;98995.91;4977179;28;20431;-76
2022/11/22 01:30:57;;;;;;;18.50;17.40;;;;;;;9.92;61.95;98997.78;4976563;28;20169;-76
2022/11/22 01:33:23;;;;;;;19.23;18.00;;;;;;;9.92;61.90;98991.56;4977678;28;20379;-76
2022/11/22 01:35:48;;;;;;;17.35;16.35;;;;;;;9.91;61.91;98996.16;4976472;28;20368;-76
2022/11/22 01:38:13;;;;;;;18.98;17.88;;;;;;;9.91;61.88;98989.97;4992274;28;20611;-78
2022/11/22 01:40:39;;;;;;;17.75;16.83;;;;;;;9.91;61.76;98990.78;4976044;28;20122;-76
2022/11/22 01:43:14;;;;;;;18.45;17.17;;;;;;;9.89;61.77;98995.66;4976411;28;20375;-76
2022/11/22 01:45:43;;;;;;;17.60;16.55;;;;;;;9.91;61.70;99014.25;4977309;28;20459;-76
2022/11/22 01:48:11;;;;;;;;;;;;;;;9.89;61.93;99011.03;4976447;28;20039;-76
2022/11/22 01:50:42;;;;;;;16.95;16.05;;;;;;;9.87;61.84;99003.19;4992388;28;20009;-76
2022/11/22 01:53:19;;;;;;;17.38;16.17;;;;;;;9.86;61.67;99009.69;4976118;28;20114;-77
2022/11/22 01:55:45;;;;;;;17.17;16.17;;;;;;;9.85;61.84;99005.41;4976141;28;20018;-76
2022/11/22 01:58:14;;;;;;;18.35;17.15;;;;;;;9.85;61.94;99007.25;4976026;28;20065;-76
2022/11/22 02:00:40;;;;;;;18.60;17.42;;;;;;;9.84;61.87;99009.16;4976413;28;20379;-76
2022/11/22 02:03:10;;;;;;;18.23;17.02;;;;;;;9.85;61.81;99018.88;4991879;28;20047;-76
2022/11/22 02:05:36;;;;;;;18.83;17.67;;;;;;;9.85;61.88;99012.66;4976635;28;20487;-76
2022/11/22 02:08:51;;;;;;;18.50;17.15;;;;;;;9.84;61.86;99019.16;4992254;28;20154;-76
2022/11/22 02:11:17;;;;;;;18.38;17.27;;;;;;;9.82;61.92;99024.00;4936167;29;20078;-78
2022/11/22 02:13:44;;;;;;;17.80;16.38;;;;;;;9.81;61.86;99022.41;4935908;29;20448;-76
2022/11/22 02:16:11;;;;;;;18.40;17.13;;;;;;;9.81;61.86;99025.91;4948903;28;20042;-76
2022/11/22 02:18:37;;;;;;;17.65;16.50;;;;;;;9.80;61.97;99029.66;4976626;28;20173;-76
2022/11/22 02:21:03;;;;;;;17.98;16.60;;;;;;;9.80;62.01;99026.97;4975374;28;20042;-76
2022/11/22 02:23:48;;;;;;;19.27;17.98;;;;;;;9.81;61.83;99028.59;4975291;28;20041;-76
2022/11/22 02:26:14;;;;;;;17.67;16.67;;;;;;;9.80;61.79;99039.66;4976753;28;20050;-76
2022/11/22 02:28:40;;;;;;;18.80;17.50;;;;;;;9.79;62.00;99038.06;4991781;28;20031;-76
2022/11/22 02:31:06;;;;;;;18.17;17.00;;;;;;;9.79;61.85;99035.38;4975737;28;20027;-76
2022/11/22 02:33:31;;;;;;;19.33;17.90;;;;;;;9.79;61.80;99033.47;4975043;28;20038;-76
2022/11/22 02:35:57;;;;;;;18.00;16.55;;;;;;;9.79;61.77;99044.25;4976295;28;20052;-76
2022/11/22 02:38:26;;;;;;;19.65;18.45;;;;;;;9.78;61.60;99045.34;4976712;28;20046;-77
2022/11/22 02:41:10;;;;;;;17.17;16.17;;;;;;;9.77;62.05;99030.25;4976233;28;20035;-76
2022/11/22 02:43:43;;;;;;;19.23;17.70;;;;;;;9.77;61.58;99032.13;4974798;28;20474;-76
2022/11/22 02:46:14;;;;;;;18.15;17.10;;;;;;;9.76;62.03;99044.81;4974852;28;20451;-76
2022/11/22 02:48:41;;;;;;;18.95;17.77;;;;;;;9.77;61.94;99051.00;4976092;28;20034;-76
2022/11/22 02:51:07;;;;;;;18.73;17.27;;;;;;;9.75;61.87;99046.72;4974671;28;20427;-77
2022/11/22 02:53:32;;;;;;;19.33;17.75;;;;;;;9.75;61.76;99048.56;4975660;28;20054;-76
2022/11/22 02:55:57;;;;;;;16.95;15.95;;;;;;;9.75;62.02;99048.56;4974737;28;20482;-75
2022/11/22 02:58:23;;;;;;;17.75;16.73;;;;;;;9.76;61.89;99055.59;4990990;28;20363;-76
2022/11/22 03:00:48;;;;;;;18.10;16.65;;;;;;;9.75;61.74;99048.56;4974823;28;20038;-75
2022/11/22 03:03:14;;;;;;;18.83;17.20;;;;;;;9.74;61.97;99049.69;4974243;28;20494;-75
2022/11/22 03:05:39;;;;;;;19.63;18.17;;;;;;;9.73;61.83;99048.88;4974409;28;20122;-75
2022/11/22 03:08:04;;;;;;;17.73;16.73;;;;;;;9.72;61.99;99049.94;4990428;28;20042;-75
2022/11/22 03:10:30;;;;;;;20.00;18.55;;;;;;;9.73;61.69;99050.78;4990719;28;20034;-75
2022/11/22 03:12:57;;;;;;;17.98;16.90;;;;;;;9.73;61.76;99050.78;4975565;28;20031;-75
2022/11/22 03:15:22;;;;;;;17.73;16.73;;;;;;;9.71;61.69;99053.72;4976032;28;20042;-78
2022/11/22 03:17:48;;;;;;;17.80;16.80;;;;;;;9.72;61.86;99054.53;4990712;28;20038;-76
2022/11/22 03:20:13;;;;;;;17.58;16.58;;;;;;;9.70;61.75;99054.84;4975060;28;20383;-75
2022/11/22 03:22:38;;;;;;;17.83;16.65;;;;;;;9.71;61.77;99058.31;4974106;28;20034;-76
2022/11/22 03:25:04;;;;;;;18.58;17.05;;;;;;;9.70;61.87;99057.53;4974044;28;20031;-75
2022/11/22 03:27:30;;;;;;;19.70;18.05;;;;;;;9.69;61.73;99061.28;4974002;28;20093;-76
2022/11/22 03:29:55;;;;;;;18.35;16.85;;;;;;;9.69;62.01;99049.69;4990370;28;20422;-75
2022/11/22 03:32:21;;;;;;;17.33;16.00;;;;;;;9.67;61.97;99058.06;4973836;28;20045;-75
2022/11/22 03:34:46;;;;;;;15.90;14.82;;;;;;;9.67;61.75;99052.66;4974090;28;20093;-75
2022/11/22 03:37:11;;;;;;;17.77;16.77;;;;;;;9.67;61.90;99057.25;4989811;28;20494;-76
2022/11/22 03:39:37;;;;;;;17.77;16.52;;;;;;;9.66;61.69;99058.34;4989913;28;20046;-75
2022/11/22 03:42:02;;;;;;;18.52;17.30;;;;;;;9.66;61.66;99058.34;4989837;28;20066;-76
2022/11/22 03:44:28;;;;;;;17.70;16.38;;;;;;;9.65;61.64;99051.34;4973785;28;20547;-77
2022/11/22 03:46:53;;;;;;;15.63;14.75;;;;;;;9.64;61.59;99061.31;4974033;28;20383;-75
2022/11/22 03:49:18;;;;;;;18.55;16.75;;;;;;;9.64;61.74;99057.81;4974726;28;20034;-75
2022/11/22 03:51:44;;;;;;;19.65;18.08;;;;;;;9.64;61.68;99060.50;4975057;28;20050;-75
2022/11/22 03:54:09;;;;;;;17.90;16.60;;;;;;;9.61;61.61;99061.88;4975000;28;20042;-75
2022/11/22 03:56:34;;;;;;;17.40;16.30;;;;;;;9.61;61.54;99064.56;4989722;28;20037;-75
2022/11/22 03:59:02;;;;;;;17.10;16.00;;;;;;;9.60;61.54;99065.66;4973732;28;20042;-75
2022/11/22 04:01:28;;;;;;;18.65;17.50;;;;;;;9.61;61.75;99080.75;4973993;28;20035;-77
2022/11/22 04:03:53;;;;;;;16.85;15.75;;;;;;;9.60;61.88;99083.72;4989803;28;20084;-75
2022/11/22 04:06:18;;;;;;;17.80;16.60;;;;;;;9.59;61.78;99082.91;4974834;28;20042;-76
2022/11/22 04:08:44;;;;;;;20.00;18.80;;;;;;;9.58;61.69;99081.31;4973258;28;20030;-75
2022/11/22 04:11:09;;;;;;;17.15;15.95;;;;;;;9.57;61.85;99081.56;4973471;28;20038;-75
2022/11/22 04:16:18;;;;;;;17.58;16.25;;;;;;;9.56;61.67;99090.75;4987774;28;20089;-75
2022/11/22 04:18:44;;;;;;;18.42;17.33;;;;;;;9.54;61.52;99099.91;4973725;28;20427;-74
2022/11/22 04:26:37;;;;;;;19.95;18.42;;;;;;;9.51;61.76;99096.97;4974877;28;20525;-75
2022/11/22 04:29:02;;;;;;;17.50;16.15;;;;;;;9.51;61.73;99091.56;4989487;28;20035;-75
2022/11/22 04:34:12;;;;;;;18.88;17.67;;;;;;;9.48;61.85;99076.75;4978795;28;20385;-75
2022/11/22 04:36:38;;;;;;;19.20;17.75;;;;;;;9.47;61.54;99080.53;4977980;28;20114;-75
2022/11/22 04:39:03;;;;;;;17.13;16.05;;;;;;;9.47;61.82;99093.19;4977845;28;20085;-76
2022/11/22 04:41:28;;;;;;;17.95;17.05;;;;;;;9.46;61.53;99095.09;4993771;28;20110;-75
2022/11/22 04:46:38;;;;;;;21.80;19.77;;;;;;;9.44;61.47;99097.25;4978538;28;20077;-75
2022/11/22 04:49:03;;;;;;;16.25;15.40;;;;;;;9.43;61.73;99103.75;4993254;28;20063;-75
2022/11/22 04:54:12;;;;;;;16.27;15.30;;;;;;;9.42;61.72;99095.91;4977204;28;20606;-75
2022/11/22 04:56:38;;;;;;;18.15;16.75;;;;;;;9.41;61.56;99097.81;4993159;28;20051;-76
2022/11/22 04:59:03;;;;;;;17.05;16.05;;;;;;;9.41;61.51;99094.31;4976648;28;20041;-75
2022/11/22 05:01:28;;;;;;;17.58;16.60;;;;;;;9.39;61.73;99099.97;4978539;28;20467;-75
2022/11/22 05:03:54;;;;;;;19.38;18.00;;;;;;;9.39;61.54;99101.84;4993134;28;20035;-75
2022/11/22 05:06:19;;;;;;;19.83;18.73;;;;;;;9.38;61.48;99098.38;4978245;28;20037;-75
2022/11/22 05:08:44;;;;;;;18.17;17.08;;;;;;;9.36;61.65;99089.75;4992996;28;20486;-76
2022/11/22 05:11:10;;;;;;;17.85;16.65;;;;;;;9.35;61.63;99104.31;4977598;28;20462;-75
2022/11/22 05:13:38;;;;;;;16.70;15.75;;;;;;;9.35;61.28;99109.69;4976985;28;20034;-77
2022/11/22 05:16:06;;;;;;;16.98;15.93;;;;;;;9.34;61.45;99116.16;4976809;28;20050;-75
2022/11/22 05:18:32;;;;;;;17.85;16.85;;;;;;;9.33;61.64;99106.47;4977765;28;20038;-75
2022/11/22 05:20:59;;;;;;;18.15;17.00;;;;;;;9.31;61.77;99109.41;4976725;28;20035;-75
2022/11/22 05:26:09;;;;;;;17.08;16.17;;;;;;;9.30;61.67;99105.13;4977869;28;20538;-75
2022/11/22 05:28:36;;;;;;;18.85;17.80;;;;;;;9.29;61.68;99111.56;4977570;28;20039;-76
2022/11/22 05:31:10;;;;;;;18.63;17.35;;;;;;;9.28;61.51;99114.56;4975884;28;20027;-76
2022/11/22 05:33:38;;;;;;;17.27;16.10;;;;;;;9.27;61.71;99115.63;4977214;28;20417;-75
2022/11/22 05:36:04;;;;;;;17.42;16.40;;;;;;;9.26;61.52;99119.41;4977283;28;20035;-75
2022/11/22 05:38:29;;;;;;;17.27;16.13;;;;;;;9.26;61.71;99119.41;4976584;28;20047;-76
2022/11/22 05:40:55;;;;;;;17.60;16.45;;;;;;;9.25;61.65;99107.03;4976142;28;20550;-75
2022/11/22 05:43:20;;;;;;;17.83;16.73;;;;;;;9.24;61.51;99111.59;4974494;28;20027;-75
2022/11/22 05:45:45;;;;;;;17.90;16.70;;;;;;;9.24;61.54;99121.56;4976030;28;20041;-75
2022/11/22 05:48:11;;;;;;;16.25;14.73;;;;;;;9.24;61.44;99116.19;4975779;28;20046;-76
2022/11/22 05:50:36;;;;;;;15.90;15.00;;;;;;;9.22;61.43;99111.09;4959171;28;20061;-75
2022/11/22 05:53:02;;;;;;;16.67;15.38;;;;;;;9.21;61.52;99103.25;4974871;28;20422;-76
2022/11/22 05:55:28;;;;;;;18.40;17.30;;;;;;;9.20;61.50;99102.47;4975690;28;20058;-76
2022/11/22 05:57:53;;;;;;;18.15;16.77;;;;;;;9.19;61.42;99092.75;4974282;28;20026;-75
2022/11/22 06:00:19;;;;;;;16.90;15.82;;;;;;;9.19;61.44;99097.34;4974737;28;20094;-76
2022/11/22 06:02:44;;;;;;;18.98;17.60;;;;;;;9.17;61.32;99091.41;4990571;28;20057;-76
2022/11/22 06:05:10;;;;;;;16.17;15.07;;;;;;;9.17;61.60;99104.88;4974533;28;20494;-75
2022/11/22 06:07:35;;;;;;;16.73;15.73;;;;;;;9.16;61.52;99100.59;4974653;28;20081;-75
2022/11/22 06:10:00;;;;;;;17.60;16.30;;;;;;;9.15;61.50;99094.41;4975220;28;20043;-75
2022/11/22 06:12:26;;;;;;;16.50;15.57;;;;;;;9.15;61.35;99093.56;4975504;28;20062;-75
2022/11/22 06:14:51;;;;;;;18.92;17.77;;;;;;;9.13;61.50;99093.84;4974377;28;20038;-75
2022/11/22 06:17:17;;;;;;;16.63;15.73;;;;;;;9.12;61.50;99094.13;4990653;28;20110;-75
2022/11/22 06:19:42;;;;;;;16.13;15.10;;;;;;;9.12;61.38;99099.50;4975398;28;20041;-78
2022/11/22 06:22:09;;;;;;;16.42;15.40;;;;;;;9.12;61.67;99104.91;4958348;28;20594;-75
2022/11/22 06:24:34;;;;;;;16.88;15.68;;;;;;;9.09;61.51;99112.44;4974414;28;20121;-75
2022/11/22 06:26:59;;;;;;;17.77;16.55;;;;;;;9.08;61.52;99120.81;4974382;28;20058;-75
2022/11/22 06:29:25;;;;;;;17.25;15.82;;;;;;;9.09;61.57;99125.09;4975439;28;20086;-76
2022/11/22 06:31:50;;;;;;;18.38;17.27;;;;;;;9.07;61.46;99130.78;4974120;28;20042;-76
2022/11/22 06:34:16;;;;;;;15.88;14.98;;;;;;;9.06;61.53;99126.47;4974161;28;20031;-76
2022/11/22 06:36:41;;;;;;;17.33;16.10;;;;;;;9.06;61.42;99125.66;4990546;28;20113;-76
2022/11/22 06:39:06;;;;;;;19.25;18.00;;;;;;;9.04;61.46;99125.91;4938176;28;1103287;-75
2022/11/22 06:41:35;;;;;;;17.23;16.23;;;;;;;9.06;61.59;99131.03;4975030;28;20050;-76
2022/11/22 06:44:05;;;;;;;18.35;17.08;;;;;;;9.04;61.38;99136.69;4976007;28;20469;-76
2022/11/22 06:46:30;;;;;;;16.25;15.07;;;;;;;9.03;61.54;99134.28;4974891;28;20061;-75
2022/11/22 06:48:55;;;;;;;17.63;16.55;;;;;;;9.03;61.63;99139.66;4958670;28;20081;-75
2022/11/22 06:51:23;;;;;;;17.02;16.00;;;;;;;9.01;61.46;99141.81;4974906;28;20086;-76
2022/11/22 06:53:49;;;;;;;17.25;15.75;;;;;;;9.00;61.43;99141.03;4973904;28;20034;-77
2022/11/22 06:56:18;;;;;;;18.27;16.98;;;;;;;9.00;61.60;99140.22;4974684;28;20117;-75
2022/11/22 06:58:44;;;;;;;16.70;15.70;;;;;;;8.99;61.42;99139.38;4975989;28;20027;-75
2022/11/22 07:01:31;;;;;;;17.15;16.15;;;;;;;8.98;61.45;99137.78;4974823;28;20031;-75
2022/11/22 07:03:58;;;;;;;17.95;16.73;;;;;;;8.98;61.38;99145.88;4975401;28;20070;-75
2022/11/22 07:06:26;;;;;;;17.55;16.45;;;;;;;8.98;61.37;99142.38;4975752;28;20030;-73
2022/11/22 07:08:52;;;;;;;18.73;17.10;;;;;;;8.97;61.44;99146.97;4975384;28;20046;-73
2022/11/22 07:11:20;;;;;;;19.90;18.60;;;;;;;8.96;61.50;99147.22;4990492;28;20038;-75
2022/11/22 07:13:46;;;;;;;16.30;15.30;;;;;;;8.94;61.49;99150.16;4974246;28;20093;-75
2022/11/22 07:16:14;;;;;;;18.30;16.90;;;;;;;8.94;61.39;99136.69;4975426;28;20077;-75
2022/11/22 07:18:40;;;;;;;16.85;15.95;;;;;;;8.94;61.58;99152.06;4975575;28;20027;-76
2022/11/22 07:21:08;;;;;;;17.73;16.58;;;;;;;8.93;61.52;99137.00;4990846;28;20475;-76
2022/11/22 07:23:34;;;;;;;16.92;15.93;;;;;;;8.93;61.28;99140.47;4975336;28;20041;-76
2022/11/22 07:25:59;;;;;;;19.08;17.67;;;;;;;8.92;61.45;99138.88;4990482;28;20039;-76
2022/11/22 07:28:25;;;;;;;16.58;15.48;;;;;;;8.92;61.42;99138.06;4990235;28;20027;-75
2022/11/22 07:30:51;;;;;;;17.70;16.42;;;;;;;8.92;61.43;99138.88;4990066;28;20042;-75
2022/11/22 07:33:17;;;;;;;16.83;15.52;;;;;;;8.92;61.52;99138.06;4975134;28;20039;-73
2022/11/22 07:35:42;;;;;;;17.58;16.40;;;;;;;8.90;61.58;99132.94;4974745;28;20035;-75
2022/11/22 07:38:08;;;;;;;18.98;17.52;;;;;;;8.90;61.47;99135.66;4974611;28;20411;-75
2022/11/22 07:40:33;;;;;;;17.27;16.27;;;;;;;8.89;61.33;99136.72;4975488;28;20043;-75
2022/11/22 07:42:59;;;;;;;17.67;16.40;;;;;;;8.90;61.24;99140.22;4974076;28;20041;-75
2022/11/22 07:45:24;;;;;;;17.52;16.23;;;;;;;8.89;61.44;99136.72;4973763;28;20027;-75
2022/11/22 07:47:50;;;;;;;16.98;15.68;;;;;;;8.88;61.14;99149.38;4973964;28;20038;-75
2022/11/22 07:50:15;;;;;;;17.95;16.85;;;;;;;8.88;61.50;99146.69;4973933;28;20038;-74
2022/11/22 07:52:41;;;;;;;18.00;16.90;;;;;;;8.88;61.53;99145.88;4973559;28;20039;-75
2022/11/22 07:55:06;;;;;;;19.58;18.27;;;;;;;8.88;61.41;99157.44;4989689;28;20177;-75
2022/11/22 07:57:32;;;;;;;16.48;15.45;;;;;;;8.88;61.47;99156.66;4973455;28;20043;-75
2022/11/22 07:59:58;;;;;;;17.20;16.10;;;;;;;8.87;61.61;99157.75;4974667;28;20058;-74
2022/11/22 08:02:25;;;;;;;17.05;16.05;;;;;;;8.87;61.31;99155.84;4974358;28;20057;-75
2022/11/22 08:04:50;;;;;;;18.48;17.27;;;;;;;8.87;61.61;99158.53;4989369;28;20495;-75
2022/11/22 08:07:16;;;;;;;17.60;16.08;;;;;;;8.87;61.42;99157.75;4975079;28;20486;-75
2022/11/22 08:09:41;;;;;;;15.88;14.98;;;;;;;8.86;61.32;99150.72;4974640;28;20035;-75
2022/11/22 08:12:07;;;;;;;19.33;17.90;;;;;;;8.85;61.31;99155.31;4989487;28;20467;-75
2022/11/22 08:14:32;;;;;;;16.70;15.70;;;;;;;8.85;61.53;99149.91;4973138;28;20039;-75
2022/11/22 08:16:58;;;;;;;18.52;17.40;;;;;;;8.85;61.36;99157.19;4972978;28;20066;-75
2022/11/22 08:19:23;;;;;;;16.90;15.88;;;;;;;8.85;61.56;99158.00;4973354;28;20042;-75
2022/11/22 08:21:49;;;;;;;18.30;17.17;;;;;;;8.85;61.35;99162.56;4989159;28;20558;-74
2022/11/22 08:24:15;;;;;;;18.00;16.80;;;;;;;8.85;61.52;99155.31;4973378;28;20038;-75
2022/11/22 08:26:41;;;;;;;17.58;16.38;;;;;;;8.85;61.52;99159.88;4989440;28;20101;-75
2022/11/22 08:29:08;;;;;;;18.63;17.27;;;;;;;8.84;61.58;99158.25;4972959;28;20027;-75
2022/11/22 08:31:34;;;;;;;17.65;16.35;;;;;;;8.84;61.35;99163.63;4973300;28;20042;-75
2022/11/22 08:34:00;;;;;;;17.70;16.40;;;;;;;8.83;61.35;99160.16;4974064;28;20479;-75
2022/11/22 08:36:26;;;;;;;16.98;15.98;;;;;;;8.83;61.47;99156.66;4974368;28;20046;-75
2022/11/22 08:38:52;;;;;;;18.58;17.52;;;;;;;8.82;61.61;99146.94;4974164;28;20540;-75
2022/11/22 08:41:17;;;;;;;17.98;16.65;;;;;;;8.83;61.50;99159.34;4973100;28;20154;-75
2022/11/22 08:43:43;;;;;;;17.65;16.75;;;;;;;8.83;61.58;99162.03;4972862;28;20077;-75
2022/11/22 08:46:09;;;;;;;19.40;18.15;;;;;;;8.83;61.55;99168.22;4989417;28;20100;-75
2022/11/22 08:48:36;;;;;;;18.13;17.13;;;;;;;8.82;61.50;99161.22;4989177;28;20109;-75
2022/11/22 08:51:08;;;;;;;18.55;17.40;;;;;;;8.83;61.41;99164.72;4974691;28;20046;-75
2022/11/22 08:53:35;;;;;;;16.92;15.73;;;;;;;8.82;61.46;99176.56;4972977;28;20141;-75
2022/11/22 08:56:02;;;;;;;16.42;15.45;;;;;;;8.81;61.25;99170.38;4974201;28;20037;-75
2022/11/22 08:58:29;;;;;;;17.38;15.80;;;;;;;8.81;61.63;99175.75;4973178;28;20058;-75
2022/11/22 09:00:55;;;;;;;17.48;15.93;;;;;;;8.82;61.51;99179.25;4974140;28;20038;-75
2022/11/22 09:03:20;;;;;;;16.42;15.52;;;;;;;8.81;61.61;99186.53;4972767;28;20038;-75
2022/11/22 09:05:46;;;;;;;17.58;16.48;;;;;;;8.81;61.53;99177.66;4972693;28;20042;-70
2022/11/22 09:08:11;;;;;;;18.23;16.77;;;;;;;8.81;61.40;99174.94;4974357;28;20078;-74
2022/11/22 09:10:36;;;;;;;17.90;16.70;;;;;;;8.83;61.25;99179.00;4974151;28;20440;-75
2022/11/22 09:13:02;;;;;;;16.48;15.50;;;;;;;8.81;61.47;99174.94;4988717;28;20141;-75
2022/11/22 09:15:27;;;;;;;18.08;16.92;;;;;;;8.80;61.51;99181.44;4972570;28;20042;-75
2022/11/22 09:17:59;;;;;;;16.42;15.30;;;;;;;8.81;61.47;99183.03;4974524;28;20113;-75
2022/11/22 09:20:25;;;;;;;17.33;16.17;;;;;;;8.81;61.44;99186.53;4977022;28;20030;-75
2022/11/22 09:22:50;;;;;;;16.75;15.65;;;;;;;8.81;61.62;99185.72;4992080;28;20376;-75
2022/11/22 09:25:15;;;;;;;19.13;17.73;;;;;;;8.81;61.37;99178.44;4975422;28;20035;-75
2022/11/22 09:27:41;;;;;;;16.33;15.15;;;;;;;8.81;61.49;99183.84;4977196;28;20042;-75
2022/11/22 09:30:07;;;;;;;17.40;16.20;;;;;;;8.81;61.31;99191.09;4975628;28;20041;-76
2022/11/22 09:32:32;;;;;;;17.70;16.38;;;;;;;8.82;61.45;99195.41;4975703;28;20046;-75
2022/11/22 09:34:57;;;;;;;17.27;16.00;;;;;;;8.80;61.34;99186.81;4976713;28;20050;-75
2022/11/22 09:37:23;;;;;;;18.08;16.90;;;;;;;8.82;61.44;99193.53;4975351;28;20030;-75
2022/11/22 09:39:48;;;;;;;16.23;15.32;;;;;;;8.82;62.00;99187.31;4976016;28;20042;-75
2022/11/22 09:42:26;;;;;;;19.08;17.25;;;;;;;8.82;61.64;99198.09;4992000;28;20034;-75
2022/11/22 09:44:51;;;;;;;16.45;15.20;;;;;;;8.82;61.60;99185.47;4977150;28;20031;-75
2022/11/22 09:47:26;;;;;;;17.35;15.63;;;;;;;8.82;61.60;99190.84;4976901;28;20043;-74
2022/11/22 09:50:01;;;;;;;16.50;15.30;;;;;;;8.82;61.55;99193.53;4975119;28;20034;-75
2022/11/22 09:52:33;;;;;;;19.48;18.05;;;;;;;8.82;61.64;99179.25;4991925;28;20404;-75
2022/11/22 09:55:23;;;;;;;16.27;15.23;;;;;;;8.82;61.48;99188.16;4975618;28;20034;-77
2022/11/22 09:58:00;;;;;;;16.90;15.45;;;;;;;8.82;61.78;99190.03;4992433;28;20125;-76
2022/11/22 10:00:27;;;;;;;17.15;16.15;;;;;;;8.82;61.64;99185.47;4975974;28;20162;-75
2022/11/22 10:03:07;;;;;;;16.35;15.45;;;;;;;8.82;61.47;99187.31;4991618;28;20039;-75
2022/11/22 10:05:47;;;;;;;17.55;16.55;;;;;;;8.82;61.54;99187.31;4976802;28;20035;-76
2022/11/22 10:08:18;;;;;;;18.85;16.98;;;;;;;8.83;61.46;99189.75;4976985;28;20134;-75
2022/11/22 10:10:44;;;;;;;17.88;16.73;;;;;;;8.84;61.49;99194.09;4976781;28;20058;-75
2022/11/22 10:13:21;;;;;;;15.68;14.73;;;;;;;8.83;61.70;99192.44;4975386;28;20069;-75
2022/11/22 10:16:03;;;;;;;16.45;15.45;;;;;;;8.85;61.45;99182.22;4976693;28;20097;-75
2022/11/22 10:18:50;;;;;;;17.00;15.90;;;;;;;8.85;61.48;99173.34;4975557;28;20030;-75
2022/11/22 10:21:17;;;;;;;17.02;15.82;;;;;;;8.86;61.69;99174.94;4992204;28;20082;-75
2022/11/22 10:23:44;;;;;;;16.65;15.60;;;;;;;8.85;61.63;99173.34;4975182;28;20086;-75
2022/11/22 10:26:26;;;;;;;16.88;15.95;;;;;;;8.86;61.73;99180.34;4976602;28;20466;-75
2022/11/22 10:29:13;;;;;;;16.00;15.18;;;;;;;8.86;61.71;99174.94;4973711;28;20023;-75
2022/11/22 10:31:52;;;;;;;15.68;14.77;;;;;;;8.85;61.73;99179.53;4976425;28;20406;-75
2022/11/22 10:34:34;;;;;;;16.52;15.52;;;;;;;8.86;61.68;99181.13;4976279;28;20029;-76
2022/11/22 10:37:00;;;;;;;16.23;15.27;;;;;;;8.85;61.45;99179.53;4976321;28;20113;-75
2022/11/22 10:39:48;;;;;;;19.15;18.02;;;;;;;8.87;61.41;99176.59;4990526;28;20055;-75
2022/11/22 10:42:25;;;;;;;17.20;16.17;;;;;;;8.86;61.55;99170.38;4976731;28;20459;-75
2022/11/22 10:45:14;;;;;;;17.00;15.82;;;;;;;8.86;61.47;99178.44;4991187;28;20034;-75
2022/11/22 10:48:08;;;;;;;16.52;15.35;;;;;;;8.86;61.84;99173.06;4991304;28;20062;-75
2022/11/22 10:50:55;;;;;;;16.77;15.88;;;;;;;8.87;61.74;99165.81;4975668;28;20060;-75
2022/11/22 10:53:32;;;;;;;18.38;17.08;;;;;;;8.86;61.62;99164.97;4976213;28;20032;-76
2022/11/22 10:56:14;;;;;;;16.65;15.65;;;;;;;8.87;61.79;99168.50;4976154;28;20031;-75
2022/11/22 10:59:01;;;;;;;15.93;15.02;;;;;;;8.87;61.56;99171.19;4974897;28;20567;-76
2022/11/22 11:01:44;;;;;;;17.55;16.23;;;;;;;8.88;61.67;99167.41;4991533;28;20142;-75
2022/11/22 11:04:11;;;;;;;16.65;15.75;;;;;;;8.87;61.65;99157.75;4990830;28;20046;-74
2022/11/22 11:06:44;;;;;;;17.35;16.13;;;;;;;8.88;61.62;99153.97;4974524;28;20118;-76
2022/11/22 11:09:10;;;;;;;16.02;15.13;;;;;;;8.90;61.55;99151.00;4974396;28;20474;-75
2022/11/22 11:11:38;;;;;;;16.40;15.50;;;;;;;8.91;61.80;99149.91;4975802;28;20035;-75
2022/11/22 11:14:17;;;;;;;15.88;14.98;;;;;;;8.91;61.70;99153.41;4991078;28;20425;-75
2022/11/22 11:16:43;;;;;;;15.82;14.93;;;;;;;8.91;61.77;99153.41;4990497;28;20101;-76
2022/11/22 11:19:18;;;;;;;16.98;15.98;;;;;;;8.92;61.69;99152.34;4990355;28;20047;-75
2022/11/22 11:21:43;;;;;;;16.20;15.30;;;;;;;8.94;61.73;99149.38;4974069;28;20494;-75
2022/11/22 11:24:14;;;;;;;18.55;17.25;;;;;;;8.94;61.80;99146.69;4975343;28;20035;-76
2022/11/22 11:26:42;;;;;;;16.30;15.43;;;;;;;8.94;61.66;99150.16;4975341;28;20031;-75
2022/11/22 11:29:16;;;;;;;16.77;15.77;;;;;;;8.95;61.78;99156.38;4974727;28;20065;-75
2022/11/22 11:31:47;;;;;;;16.40;15.50;;;;;;;8.96;61.61;99147.22;4975217;28;20033;-75
2022/11/22 11:34:23;;;;;;;16.60;15.48;;;;;;;8.96;62.01;99144.53;4975143;28;20050;-75
2022/11/22 11:36:49;;;;;;;16.23;15.13;;;;;;;8.97;61.87;99148.81;4990684;28;20026;-75
2022/11/22 11:39:19;;;;;;;16.08;15.18;;;;;;;8.97;61.80;99138.03;4973239;28;20057;-76
2022/11/22 11:41:46;;;;;;;19.50;17.95;;;;;;;8.97;61.96;99136.19;4974988;28;20529;-75
2022/11/22 11:44:35;;;;;;;15.10;14.20;;;;;;;8.97;61.95;99135.34;4973861;28;20043;-76
2022/11/22 11:47:04;;;;;;;16.65;15.63;;;;;;;8.98;61.84;99140.47;4973981;28;20057;-75